Time,TemperatureF,DewpointF,PressureIn,WindDirection,WindDirectionDegrees,WindSpeedMPH,WindSpeedGustMPH,Humidity,HourlyPrecipIn,Conditions,Clouds,dailyrainin,SolarRadiationWatts/m^2,SoftwareType,DateUTC
2013-01-17 00:06:00,54.2,42.7,29.69,West,279,7.0,7.0,65,0.00,,,0.00,0,Wunderground v.1.15,2013-01-16 22:06:00,
2013-01-17 00:46:00,53.5,42.8,29.70,WNW,287,7.0,7.0,67,0.00,,,0.00,0,Wunderground v.1.15,2013-01-16 22:46:00,
2013-01-17 01:01:00,53.3,42.6,29.72,WNW,298,4.0,4.0,67,0.00,,,0.00,0,Wunderground v.1.15,2013-01-16 23:01:00,
2013-01-17 01:11:00,52.9,42.2,29.71,WNW,298,2.0,2.0,67,0.00,,,0.00,0,Wunderground v.1.15,2013-01-16 23:11:00,
2013-01-17 01:21:00,52.6,41.9,29.73,WNW,300,2.0,2.0,67,0.00,,,0.00,0,Wunderground v.1.15,2013-01-16 23:21:00,
2013-01-17 01:41:00,52.8,42.1,29.72,West,281,4.0,7.0,67,0.00,,,0.00,0,Wunderground v.1.15,2013-01-16 23:41:00,
2013-01-17 01:51:00,53.5,42.4,29.73,West,275,5.0,5.0,66,0.00,,,0.00,0,Wunderground v.1.15,2013-01-16 23:51:00,
2013-01-17 02:16:00,53.8,42.3,29.72,West,261,4.0,4.0,65,0.00,,,0.00,0,Wunderground v.1.15,2013-01-17 00:16:00,
2013-01-17 02:26:00,53.8,42.3,29.73,West,261,3.0,4.0,65,0.00,,,0.00,0,Wunderground v.1.15,2013-01-17 00:26:00,
2013-01-17 02:36:00,53.8,42.7,29.72,West,263,2.0,4.0,66,0.00,,,0.00,0,Wunderground v.1.15,2013-01-17 00:36:00,
2013-01-17 02:46:00,53.8,42.3,29.72,West,263,2.0,2.0,65,0.00,,,0.00,0,Wunderground v.1.15,2013-01-17 00:46:00,
2013-01-17 03:01:00,53.2,42.1,29.71,West,265,1.0,3.0,66,0.00,,,0.00,0,Wunderground v.1.15,2013-01-17 01:01:00,
2013-01-17 03:26:00,51.7,42.6,29.72,West,265,0.0,1.0,71,0.00,,,0.00,0,Wunderground v.1.15,2013-01-17 01:26:00,
2013-01-17 03:41:00,52.4,43.3,29.72,West,271,4.0,6.0,71,0.00,,,0.00,0,Wunderground v.1.15,2013-01-17 01:41:00,
2013-01-17 03:51:00,53.1,43.6,29.72,West,271,2.0,6.0,70,0.00,,,0.00,0,Wunderground v.1.15,2013-01-17 01:51:00,
2013-01-17 04:21:00,53.7,42.6,29.72,West,262,3.0,3.0,66,0.00,,,0.00,0,Wunderground v.1.15,2013-01-17 02:21:00,
2013-01-17 04:31:00,53.9,42.0,29.73,West,267,2.0,2.0,64,0.00,,,0.00,0,Wunderground v.1.15,2013-01-17 02:31:00,
2013-01-17 04:41:00,53.8,42.7,29.73,West,267,0.0,0.0,66,0.00,,,0.00,0,Wunderground v.1.15,2013-01-17 02:41:00,
2013-01-17 05:41:00,54.7,43.6,29.74,WSW,250,2.0,2.0,66,0.00,,,0.00,0,Wunderground v.1.15,2013-01-17 03:41:00,
2013-01-17 06:01:00,54.8,43.7,29.73,WSW,250,2.0,4.0,66,0.00,,,0.00,0,Wunderground v.1.15,2013-01-17 04:01:00,
2013-01-17 06:41:00,55.0,43.8,29.73,WSW,254,2.0,2.0,66,0.00,,,0.00,0,Wunderground v.1.15,2013-01-17 04:41:00,
2013-01-17 06:51:00,54.9,43.7,29.73,WSW,252,2.0,3.0,66,0.00,,,0.00,0,Wunderground v.1.15,2013-01-17 04:51:00,
2013-01-17 07:16:00,55.0,44.2,29.73,WSW,246,3.0,3.0,67,0.00,,,0.00,0,Wunderground v.1.15,2013-01-17 05:16:00,
2013-01-17 07:46:00,55.5,44.3,29.74,SW,236,2.0,2.0,66,0.00,,,0.00,5,Wunderground v.1.15,2013-01-17 05:46:00,
2013-01-17 07:56:00,55.5,44.7,29.75,SW,236,1.0,1.0,67,0.00,,,0.00,14,Wunderground v.1.15,2013-01-17 05:56:00,
2013-01-17 09:05:00,56.7,45.5,29.77,SW,236,0.0,0.0,66,0.00,,,0.00,162,Wunderground v.1.15,2013-01-17 07:05:00,
2013-01-17 09:20:00,57.5,45.8,29.78,SW,236,2.0,2.0,65,0.00,,,0.00,218,Wunderground v.1.15,2013-01-17 07:20:00,
2013-01-17 10:15:00,57.8,46.1,29.77,WSW,242,2.0,11.0,65,0.00,,,0.00,93,Wunderground v.1.15,2013-01-17 08:15:00,
2013-01-17 10:50:00,59.3,46.7,29.77,SW,230,4.0,4.0,63,0.00,,,0.00,434,Wunderground v.1.15,2013-01-17 08:50:00,
2013-01-17 11:15:00,59.8,46.7,29.77,West,263,6.0,6.0,62,0.00,,,0.00,570,Wunderground v.1.15,2013-01-17 09:15:00,
2013-01-17 11:30:00,60.0,46.1,29.76,SW,228,3.0,5.0,60,0.00,,,0.00,230,Wunderground v.1.15,2013-01-17 09:30:00,
2013-01-17 12:10:00,59.8,45.9,29.76,WSW,257,6.0,6.0,60,0.00,,,0.00,113,Wunderground v.1.15,2013-01-17 10:10:00,
2013-01-17 12:25:00,59.7,46.2,29.75,WSW,249,5.0,5.0,61,0.00,,,0.00,132,Wunderground v.1.15,2013-01-17 10:25:00,
2013-01-17 13:31:00,59.5,47.7,29.74,SW,230,5.0,7.0,65,0.00,,,0.00,104,Wunderground v.1.15,2013-01-17 11:31:00,
2013-01-17 14:11:00,59.5,48.5,29.74,SW,219,6.0,10.0,67,0.00,,,0.00,95,Wunderground v.1.15,2013-01-17 12:11:00,
2013-01-17 14:55:00,59.2,50.2,29.72,SSW,192,5.0,5.0,72,0.00,,,0.00,98,Wunderground v.1.15,2013-01-17 12:55:00,
2013-01-17 15:50:00,60.2,51.5,29.72,SSW,211,5.0,6.0,73,0.00,,,0.00,125,Wunderground v.1.15,2013-01-17 13:50:00,
2013-01-17 17:10:00,59.7,51.4,29.71,SW,214,7.0,7.0,74,0.00,,,0.00,12,Wunderground v.1.15,2013-01-17 15:10:00,
2013-01-17 18:25:00,59.9,52.0,29.71,SW,235,6.0,7.0,75,0.00,,,0.00,0,Wunderground v.1.15,2013-01-17 16:25:00,
2013-01-17 18:40:00,60.1,52.5,29.71,SW,229,8.0,8.0,76,0.00,,,0.00,0,Wunderground v.1.15,2013-01-17 16:40:00,
2013-01-17 19:01:00,60.1,50.7,29.70,SW,236,10.0,16.0,71,0.00,,,0.00,0,Wunderground v.1.15,2013-01-17 17:01:00,
2013-01-17 19:25:00,59.6,51.3,29.70,SW,219,10.0,10.0,74,0.00,,,0.00,0,Wunderground v.1.15,2013-01-17 17:25:00,
2013-01-17 19:40:00,59.3,51.0,29.70,SW,218,9.0,9.0,74,0.00,,,0.00,0,Wunderground v.1.15,2013-01-17 17:40:00,